• Join FlightAware (Why Join?)
  • Login
  • US Flag 
10:13AM EDT


 

Airport Tracker/Info


-or-


 

Live Flight TrackerFlight Track Log ✈ SWA1535 ✈ 30-Apr-2013 ✈ KPVD - KMCO

Flight Track Log - Related Links

Times and Time Zones

All times are in EDT time to prevent confusion due to time zone crossing. See the SWA1535 flight status page for this flight to view local times or setup timezone preferences in your user account.

Time Position Orientation Groundspeed Altitude Reporting Facility
EDT Latitude Longitude Course Direction KTS MPH feet Rate Location/Type
01:07PM 41.6097 -71.3794 167° South 223 257 5,800  Level Boston Center
01:08PM 41.5428 -71.3611 168° South 228 262 8,500 3,060 Climbing Boston Center
01:09PM 41.4633 -71.3347 166° South 263 303 12,000 3,360 Climbing Boston Center
01:10PM 41.3756 -71.3086 167° South 297 342 15,300 2,940 Climbing Boston Center
01:11PM 41.2856 -71.2772 165° South 322 371 17,900 2,700 Climbing Boston Center
01:12PM 41.1894 -71.2486 167° South 341 392 20,800 2,400 Climbing Boston Center
01:13PM 41.0892 -71.2228 169° South 360 414 22,800 1,680 Climbing Boston Center
01:14PM 41.0175 -71.3397 231° Southwest 331 381 24,200 1,980 Climbing Boston Center
01:15PM 40.9458 -71.4811 236° Southwest 369 425 26,800 2,160 Climbing Boston Center
01:16PM 40.8928 -71.6136 242° Southwest 444 511 28,600 1,920 Climbing Boston Center
01:17PM 40.8311 -71.7517 239° Southwest 449 517 30,700 2,100 Climbing Boston Center
01:18PM 40.7694 -71.8867 239° Southwest 443 510 32,900 2,040 Climbing Boston Center
01:19PM 40.7011 -72.0047 233° Southwest 431 496 34,800 1,500 Climbing Boston Center
01:20PM 40.6369 -72.1364 237° Southwest 421 484 35,900 600 Climbing Boston Center
01:21PM 40.5706 -72.2653 236° Southwest 421 484 36,000  Climbing Boston Center
01:23PM 40.4631 -72.5000 239° Southwest 419 482 36,000  Level Washington Center
01:24PM 40.3997 -72.6336 238° Southwest 424 488 36,000  Level Washington Center
01:25PM 40.3383 -72.7611 238° Southwest 424 488 36,000  Level Washington Center
01:26PM 40.2767 -72.8914 238° Southwest 424 488 36,000  Level Washington Center
01:27PM 40.2108 -73.0217 237° Southwest 424 488 36,000  Level Washington Center
01:28PM 40.1511 -73.1489 238° Southwest 419 482 36,000  Level Washington Center
01:29PM 40.0847 -73.2703 234° Southwest 419 482 36,000  Level Washington Center
01:30PM 39.9992 -73.3733 223° Southwest 424 488 36,000  Level Washington Center
01:31PM 39.9053 -73.4736 219° Southwest 430 495 36,000  Level Washington Center
01:32PM 39.8153 -73.5708 220° Southwest 435 501 36,000  Level Washington Center
01:33PM 39.7272 -73.6706 221° Southwest 435 501 36,000  Level Washington Center
01:34PM 39.6372 -73.7728 221° Southwest 429 494 36,000  Level Washington Center
01:35PM 39.5469 -73.8719 220° Southwest 429 494 36,000  Level Washington Center
01:36PM 39.4544 -73.9708 220° Southwest 429 494 36,000  Level Washington Center
01:37PM 39.3661 -74.0667 220° Southwest 429 494 36,000  Level Washington Center
01:38PM 39.2736 -74.1681 220° Southwest 429 494 36,000  Level Washington Center
01:39PM 39.1853 -74.2661 221° Southwest 429 494 36,000  Level Washington Center
01:40PM 39.0903 -74.3722 221° Southwest 424 488 36,000  Level Washington Center
01:41PM 38.9975 -74.4672 219° Southwest 424 488 36,000  Level Washington Center
01:42PM 38.9067 -74.5647 220° Southwest 429 494 36,000  Level Washington Center
01:43PM 38.8178 -74.6644 221° Southwest 429 494 36,000  Level Washington Center
01:44PM 38.7269 -74.7589 219° Southwest 429 494 36,000  Level Washington Center
01:45PM 38.6378 -74.8528 219° Southwest 424 488 36,000  Level Washington Center
01:46PM 38.5508 -74.9492 221° Southwest 424 488 36,000  Level Washington Center
01:47PM 38.4594 -75.0403 218° Southwest 424 488 36,000  Level Washington Center
01:48PM 38.3683 -75.1361 220° Southwest 429 494 36,000  Level Washington Center
01:49PM 38.2747 -75.2161 214° Southwest 423 487 36,000  Level Washington Center
01:50PM 38.1769 -75.2986 214° Southwest 423 487 36,000  Level Washington Center
01:51PM 38.0792 -75.3781 213° Southwest 423 487 36,000  Level Washington Center
01:52PM 37.9833 -75.4628 215° Southwest 423 487 36,000  Level Washington Center
01:53PM 37.8853 -75.5392 212° Southwest 423 487 36,000  Level Washington Center
01:54PM 37.7914 -75.6206 214° Southwest 423 487 36,000  Level Washington Center
01:55PM 37.6933 -75.7019 213° Southwest 418 481 36,000  Level Washington Center
01:56PM 37.5975 -75.7806 213° Southwest 418 481 36,000  Level Washington Center
01:57PM 37.4992 -75.8614 213° Southwest 418 481 36,000  Level Washington Center
01:58PM 37.4008 -75.9422 213° Southwest 418 481 36,000  Level Washington Center
01:59PM 37.3047 -76.0228 214° Southwest 418 481 36,000  Level Washington Center
02:00PM 37.2044 -76.1031 213° Southwest 423 487 36,000  Level Washington Center
02:01PM 37.1144 -76.1700 211° Southwest 423 487 36,000  Level Washington Center
02:02PM 37.0158 -76.2525 214° Southwest 423 487 36,000  Level Washington Center
02:03PM 36.9172 -76.3297 212° Southwest 428 493 36,000  Level Washington Center
02:04PM 36.8208 -76.4117 214° Southwest 428 493 36,000  Level Washington Center
02:05PM 36.7222 -76.4911 213° Southwest 428 493 36,000  Level Washington Center
02:06PM 36.6150 -76.5806 214° Southwest 428 493 36,000  Level Washington Center
02:07PM 36.5164 -76.6567 212° Southwest 423 487 36,000  Level Washington Center
02:08PM 36.4178 -76.7356 213° Southwest 423 487 36,000  Level Washington Center
02:09PM 36.3294 -76.8064 213° Southwest 423 487 36,000  Level Washington Center
02:10PM 36.2283 -76.8872 213° Southwest 423 487 36,000  Level Washington Center
02:11PM 36.1314 -76.9653 213° Southwest 428 493 36,000  Level Washington Center
02:12PM 36.0283 -77.0431 211° Southwest 428 493 36,000  Level Washington Center
02:13PM 35.9228 -77.1336 215° Southwest 428 493 36,000  Level Washington Center
02:14PM 35.8508 -77.2192 224° Southwest 422 486 36,000  Level Washington Center
02:15PM 35.7578 -77.3119 219° Southwest 428 493 36,000  Level Washington Center
02:16PM 35.6667 -77.4047 220° Southwest 433 498 36,000  Level Washington Center
02:17PM 35.5714 -77.4969 218° Southwest 433 498 36,000  Level Washington Center
02:18PM 35.4800 -77.5892 219° Southwest 427 491 36,000  Level Washington Center
02:19PM 35.3889 -77.6761 218° Southwest 427 491 36,000  Level Washington Center
02:20PM 35.2956 -77.7678 219° Southwest 427 491 36,000  Level Washington Center
02:21PM 35.2042 -77.8569 219° Southwest 427 491 36,000  Level Washington Center
02:22PM 35.1106 -77.9483 219° Southwest 427 491 36,000  Level Washington Center
02:23PM 35.0169 -78.0394 219° Southwest 427 491 36,000  Level Washington Center
02:26PM 34.7881 -78.2592 218° Southwest 426 490 36,000  Level Jacksonville Center
02:27PM 34.6978 -78.3550 221° Southwest 431 496 36,000  Level Jacksonville Center
02:28PM 34.6006 -78.4408 216° Southwest 437 503 36,000  Level Jacksonville Center
02:29PM 34.5100 -78.5286 219° Southwest 437 503 36,000  Level Jacksonville Center
02:30PM 34.4214 -78.6211 221° Southwest 431 496 36,000  Level Jacksonville Center
02:31PM 34.3281 -78.7061 217° Southwest 431 496 36,000  Level Jacksonville Center
02:32PM 34.2250 -78.8042 218° Southwest 431 496 36,000  Level Jacksonville Center
02:33PM 34.1358 -78.8886 218° Southwest 431 496 36,000  Level Jacksonville Center
02:34PM 34.0428 -78.9781 219° Southwest 431 496 36,000  Level Jacksonville Center
02:35PM 33.9686 -79.0789 228° Southwest 425 489 36,000  Level Jacksonville Center
02:36PM 33.9094 -79.1967 239° Southwest 410 472 36,000  Level Jacksonville Center
02:37PM 33.8544 -79.3114 240° Southwest 410 472 36,000  Level Jacksonville Center
02:38PM 33.7950 -79.4289 239° Southwest 410 472 36,000  Level Jacksonville Center
02:39PM 33.7497 -79.5256 241° Southwest 404 465 36,000  Level Jacksonville Center
02:40PM 33.6667 -79.6161 222° Southwest 399 459 36,000  Level Jacksonville Center
02:41PM 33.5597 -79.6750 205° Southwest 400 460 36,000  Level Jacksonville Center
02:42PM 33.4506 -79.7336 204° Southwest 418 481 36,000  Level Jacksonville Center
02:43PM 33.3433 -79.7919 204° Southwest 425 489 36,000  Level Jacksonville Center
02:44PM 33.2342 -79.8531 205° Southwest 431 496 36,000  Level Jacksonville Center
02:45PM 33.1311 -79.9086 204° Southwest 431 496 36,000  Level Jacksonville Center
02:46PM 33.0219 -79.9667 204° Southwest 431 496 36,000  Level Jacksonville Center
02:47PM 32.9147 -80.0247 204° Southwest 431 496 36,000  Level Jacksonville Center
02:48PM 32.8142 -80.0944 210° Southwest 426 490 36,000  Level Jacksonville Center
02:49PM 32.7156 -80.1692 213° Southwest 426 490 36,000  Level Jacksonville Center
02:50PM 32.6169 -80.2411 212° Southwest 426 490 36,000  Level Jacksonville Center
02:51PM 32.5119 -80.3206 213° Southwest 420 483 36,000  Level Jacksonville Center
02:52PM 32.4153 -80.3922 212° Southwest 420 483 36,000  Level Jacksonville Center
02:53PM 32.3186 -80.4614 211° Southwest 414 476 36,000  Level Jacksonville Center
02:54PM 32.2153 -80.5206 206° Southwest 402 463 36,000  Level Jacksonville Center
02:55PM 32.1097 -80.5650 200° South 418 481 36,000  Level Jacksonville Center
02:56PM 32.0081 -80.6067 199° South 429 494 36,000  Level Jacksonville Center
02:57PM 31.8839 -80.6564 199° South 429 494 36,000  Level Jacksonville Center
02:58PM 31.7717 -80.6981 198° South 429 494 36,000  Level Jacksonville Center
02:59PM 31.6703 -80.7419 200° South 429 494 36,000  Level Jacksonville Center
03:00PM 31.5458 -80.7911 199° South 429 494 36,000  Level Jacksonville Center
03:01PM 31.4442 -80.8300 198° South 429 494 36,000  Level Jacksonville Center
03:02PM 31.3322 -80.8786 200° South 429 494 36,000  Level Jacksonville Center
03:03PM 31.2181 -80.9250 199° South 435 501 36,000  Level Jacksonville Center
03:04PM 31.1017 -80.9686 198° South 435 501 36,000  Level Jacksonville Center
03:05PM 30.9897 -81.0169 200° South 435 501 36,000  Level Jacksonville Center
03:06PM 30.8714 -81.0628 198° South 441 507 36,000  Level Jacksonville Center
03:07PM 30.7572 -81.1061 198° South 441 507 36,000 -960 Level Jacksonville Center
03:08PM 30.6408 -81.1494 198° South 441 507 34,100 -1,020 Descending Jacksonville Center
03:09PM 30.5136 -81.1517 181° South 447 514 34,000 -60 Descending Jacksonville Center
03:10PM 30.3756 -81.1494 179° South 447 514 34,000 -240 Level Jacksonville Center
03:11PM 30.2503 -81.1444 178° South 447 514 33,600 -1,380 Descending Jacksonville Center
03:12PM 30.1250 -81.1394 178° South 447 514 31,300 -2,160 Descending Jacksonville Center
03:13PM 30.0103 -81.1367 179° South 437 503 29,300 -2,040 Descending Jacksonville Center
03:14PM 29.8933 -81.1342 179° South 431 496 27,300 -1,980 Descending Jacksonville Center
03:15PM 29.7803 -81.1289 178° South 419 482 25,400 -1,860 Descending Jacksonville Center
03:16PM 29.6761 -81.1283 180° South 400 460 23,600 -1,800 Descending Jacksonville Center
03:17PM 29.5736 -81.1256 179° South 385 443 21,800 -1,800 Descending Jacksonville Center
03:18PM 29.4733 -81.1203 177° South 373 429 20,100 -1,620 Descending Jacksonville Center
03:19PM 29.3878 -81.1144 177° South 365 420 18,600 -1,620 Descending Jacksonville Center
03:20PM 29.2917 -81.1139 180° South 360 414 16,900 -1,740 Descending Jacksonville Center
03:21PM 29.1997 -81.1061 176° South 344 396 15,200 -1,740 Descending Jacksonville Center
03:22PM 29.1100 -81.0981 176° South 339 390 13,500 -1,620 Descending Jacksonville Center
03:23PM 29.0222 -81.0950 178° South 327 376 12,000 -1,380 Descending Jacksonville Center
03:24PM 28.9386 -81.0775 170° South 315 362 10,800 -1,440 Descending Jacksonville Center
03:24PM 28.8500 -81.0667 174° South 297 342 9,300 -1,620 Descending Orlando TRACON
03:25PM 28.7833 -81.0500 168° South 294 338 7,700 -1,500 Descending Orlando TRACON
03:27PM 28.7333 -81.1333 236° Southwest 260 299 6,200 -1,080 Descending Orlando TRACON
03:28PM 28.6833 -81.1833 221° Southwest 230 265 5,500 -900 Descending Orlando TRACON
03:29PM 28.6500 -81.2333 233° Southwest 224 258 4,400 -1,080 Descending Orlando TRACON
03:30PM 28.6000 -81.2833 221° Southwest 214 246 3,400 -1,200 Descending Orlando TRACON
03:31PM 28.5500 -81.2833 180° South 176 203 2,200 -1,140 Descending Orlando TRACON
03:32PM 28.5000 -81.2833 180° South 155 178 1,200 -840 Descending Orlando TRACON
03:33PM 28.4667 -81.2833 180° South 138 159 500 -720 Descending Orlando TRACON
03:35PM 28.4294 -81.3090 336° Northwest  Level Estimated
03:42PM 28.4294 -81.3090 336° Northwest  Level Estimated
03:43PM 28.4294 -81.3090 336° Northwest  Level Estimated
03:44PM 28.4294 -81.3090 336° Northwest  Level Estimated